sensor_id;sensor_type;location;lat;lon;timestamp;temperature;humidity
16271;DHT22;8243;49.048;8.396;2023-10-08T00:00:45;15.60;38.00
16271;DHT22;8243;49.048;8.396;2023-10-08T00:03:19;15.60;37.70
16271;DHT22;8243;49.048;8.396;2023-10-08T00:05:46;15.60;37.70
16271;DHT22;8243;49.048;8.396;2023-10-08T00:08:11;15.50;37.90
16271;DHT22;8243;49.048;8.396;2023-10-08T00:10:39;15.50;37.70
16271;DHT22;8243;49.048;8.396;2023-10-08T00:13:09;15.50;37.60
16271;DHT22;8243;49.048;8.396;2023-10-08T00:15:38;15.40;37.80
16271;DHT22;8243;49.048;8.396;2023-10-08T00:18:07;15.40;38.00
16271;DHT22;8243;49.048;8.396;2023-10-08T00:20:37;15.40;38.30
16271;DHT22;8243;49.048;8.396;2023-10-08T00:23:24;15.30;38.30
16271;DHT22;8243;49.048;8.396;2023-10-08T00:25:53;15.30;38.60
16271;DHT22;8243;49.048;8.396;2023-10-08T00:28:20;15.30;39.00
16271;DHT22;8243;49.048;8.396;2023-10-08T00:30:46;15.20;39.10
16271;DHT22;8243;49.048;8.396;2023-10-08T00:33:13;15.20;39.00
16271;DHT22;8243;49.048;8.396;2023-10-08T00:35:41;15.20;38.90
16271;DHT22;8243;49.048;8.396;2023-10-08T00:38:10;15.20;38.80
16271;DHT22;8243;49.048;8.396;2023-10-08T00:40:46;15.20;38.50
16271;DHT22;8243;49.048;8.396;2023-10-08T00:43:32;15.20;37.90
16271;DHT22;8243;49.048;8.396;2023-10-08T00:45:59;15.10;37.70
16271;DHT22;8243;49.048;8.396;2023-10-08T00:48:29;15.10;37.30
16271;DHT22;8243;49.048;8.396;2023-10-08T00:51:04;15.00;37.30
16271;DHT22;8243;49.048;8.396;2023-10-08T00:53:57;15.00;37.20
16271;DHT22;8243;49.048;8.396;2023-10-08T00:56:32;14.90;37.00
16271;DHT22;8243;49.048;8.396;2023-10-08T00:59:17;14.90;36.60
16271;DHT22;8243;49.048;8.396;2023-10-08T01:01:47;14.90;36.10
16271;DHT22;8243;49.048;8.396;2023-10-08T01:04:31;14.90;35.90
16271;DHT22;8243;49.048;8.396;2023-10-08T01:07:01;15.00;36.00
16271;DHT22;8243;49.048;8.396;2023-10-08T01:09:35;15.00;35.10
16271;DHT22;8243;49.048;8.396;2023-10-08T01:12:16;15.00;35.10
16271;DHT22;8243;49.048;8.396;2023-10-08T01:14:46;15.00;34.00
16271;DHT22;8243;49.048;8.396;2023-10-08T01:17:14;15.10;33.70
16271;DHT22;8243;49.048;8.396;2023-10-08T01:19:47;15.00;33.30
16271;DHT22;8243;49.048;8.396;2023-10-08T01:22:16;15.10;33.10
16271;DHT22;8243;49.048;8.396;2023-10-08T01:24:50;15.00;33.00
16271;DHT22;8243;49.048;8.396;2023-10-08T01:27:17;15.00;33.00
16271;DHT22;8243;49.048;8.396;2023-10-08T01:29:48;15.00;32.80
16271;DHT22;8243;49.048;8.396;2023-10-08T01:32:16;15.00;32.50
16271;DHT22;8243;49.048;8.396;2023-10-08T01:34:43;15.00;31.80
16271;DHT22;8243;49.048;8.396;2023-10-08T01:37:15;15.00;31.30
16271;DHT22;8243;49.048;8.396;2023-10-08T01:39:45;15.00;30.90
16271;DHT22;8243;49.048;8.396;2023-10-08T01:42:12;15.00;30.90
16271;DHT22;8243;49.048;8.396;2023-10-08T01:44:48;15.00;30.60
16271;DHT22;8243;49.048;8.396;2023-10-08T01:47:17;15.00;30.50
16271;DHT22;8243;49.048;8.396;2023-10-08T01:49:43;14.90;30.90
16271;DHT22;8243;49.048;8.396;2023-10-08T01:52:10;14.90;30.60
16271;DHT22;8243;49.048;8.396;2023-10-08T01:54:55;14.90;31.00
16271;DHT22;8243;49.048;8.396;2023-10-08T01:57:20;14.80;31.40
16271;DHT22;8243;49.048;8.396;2023-10-08T01:59:46;14.80;31.70
16271;DHT22;8243;49.048;8.396;2023-10-08T02:02:11;14.70;32.10
16271;DHT22;8243;49.048;8.396;2023-10-08T02:04:40;14.70;32.20
16271;DHT22;8243;49.048;8.396;2023-10-08T02:07:06;14.70;32.10
16271;DHT22;8243;49.048;8.396;2023-10-08T02:09:38;14.70;31.90
16271;DHT22;8243;49.048;8.396;2023-10-08T02:12:04;14.60;31.80
16271;DHT22;8243;49.048;8.396;2023-10-08T02:14:29;14.60;31.80
16271;DHT22;8243;49.048;8.396;2023-10-08T02:16:58;14.60;32.70
16271;DHT22;8243;49.048;8.396;2023-10-08T02:19:27;14.60;32.10
16271;DHT22;8243;49.048;8.396;2023-10-08T02:21:54;14.50;32.30
16271;DHT22;8243;49.048;8.396;2023-10-08T02:24:20;14.50;32.50
16271;DHT22;8243;49.048;8.396;2023-10-08T02:26:53;14.50;32.50
16271;DHT22;8243;49.048;8.396;2023-10-08T02:29:21;14.40;32.80
16271;DHT22;8243;49.048;8.396;2023-10-08T02:31:47;14.40;33.10
16271;DHT22;8243;49.048;8.396;2023-10-08T02:34:13;14.40;33.10
16271;DHT22;8243;49.048;8.396;2023-10-08T02:36:40;14.40;33.30
16271;DHT22;8243;49.048;8.396;2023-10-08T02:39:07;14.30;33.30
16271;DHT22;8243;49.048;8.396;2023-10-08T02:41:42;14.40;33.60
16271;DHT22;8243;49.048;8.396;2023-10-08T02:44:11;14.30;33.70
16271;DHT22;8243;49.048;8.396;2023-10-08T02:46:39;14.30;33.90
16271;DHT22;8243;49.048;8.396;2023-10-08T02:49:09;14.20;34.30
16271;DHT22;8243;49.048;8.396;2023-10-08T02:51:40;14.20;34.30
16271;DHT22;8243;49.048;8.396;2023-10-08T02:54:07;14.20;34.40
16271;DHT22;8243;49.048;8.396;2023-10-08T02:56:42;14.10;34.90
16271;DHT22;8243;49.048;8.396;2023-10-08T02:59:10;14.00;35.40
16271;DHT22;8243;49.048;8.396;2023-10-08T03:01:37;14.00;35.70
16271;DHT22;8243;49.048;8.396;2023-10-08T03:04:06;14.00;35.90
16271;DHT22;8243;49.048;8.396;2023-10-08T03:06:40;14.00;36.40
16271;DHT22;8243;49.048;8.396;2023-10-08T03:09:06;13.90;36.70
16271;DHT22;8243;49.048;8.396;2023-10-08T03:11:33;13.90;37.00
16271;DHT22;8243;49.048;8.396;2023-10-08T03:14:01;13.80;37.40
16271;DHT22;8243;49.048;8.396;2023-10-08T03:16:26;13.80;38.10
16271;DHT22;8243;49.048;8.396;2023-10-08T03:19:01;13.70;38.50
16271;DHT22;8243;49.048;8.396;2023-10-08T03:21:26;13.70;39.10
16271;DHT22;8243;49.048;8.396;2023-10-08T03:24:04;13.60;39.30
16271;DHT22;8243;49.048;8.396;2023-10-08T03:26:38;13.60;39.30
16271;DHT22;8243;49.048;8.396;2023-10-08T03:29:10;13.60;39.40
16271;DHT22;8243;49.048;8.396;2023-10-08T03:31:43;13.50;40.10
16271;DHT22;8243;49.048;8.396;2023-10-08T03:34:12;13.50;40.30
16271;DHT22;8243;49.048;8.396;2023-10-08T03:36:39;13.50;40.30
16271;DHT22;8243;49.048;8.396;2023-10-08T03:39:10;13.50;40.30
16271;DHT22;8243;49.048;8.396;2023-10-08T03:41:40;13.50;40.30
16271;DHT22;8243;49.048;8.396;2023-10-08T03:44:07;13.50;40.30
16271;DHT22;8243;49.048;8.396;2023-10-08T03:46:39;13.50;40.30
16271;DHT22;8243;49.048;8.396;2023-10-08T03:49:11;13.40;39.90
16271;DHT22;8243;49.048;8.396;2023-10-08T03:51:49;13.40;40.00
16271;DHT22;8243;49.048;8.396;2023-10-08T03:54:21;13.40;39.30
16271;DHT22;8243;49.048;8.396;2023-10-08T03:56:59;13.50;38.80
16271;DHT22;8243;49.048;8.396;2023-10-08T03:59:26;13.50;38.50
16271;DHT22;8243;49.048;8.396;2023-10-08T04:02:00;13.50;38.00
16271;DHT22;8243;49.048;8.396;2023-10-08T04:04:39;13.50;37.80
16271;DHT22;8243;49.048;8.396;2023-10-08T04:07:19;13.50;37.70
16271;DHT22;8243;49.048;8.396;2023-10-08T04:10:05;13.50;37.40
16271;DHT22;8243;49.048;8.396;2023-10-08T04:12:33;13.50;36.70
16271;DHT22;8243;49.048;8.396;2023-10-08T04:15:09;13.50;36.50
16271;DHT22;8243;49.048;8.396;2023-10-08T04:17:38;13.50;36.00
16271;DHT22;8243;49.048;8.396;2023-10-08T04:20:14;13.50;35.30
16271;DHT22;8243;49.048;8.396;2023-10-08T04:22:59;13.50;35.10
16271;DHT22;8243;49.048;8.396;2023-10-08T04:25:28;13.50;34.80
16271;DHT22;8243;49.048;8.396;2023-10-08T04:27:58;13.50;34.60
16271;DHT22;8243;49.048;8.396;2023-10-08T04:30:32;13.50;34.00
16271;DHT22;8243;49.048;8.396;2023-10-08T04:33:03;13.50;33.60
16271;DHT22;8243;49.048;8.396;2023-10-08T04:35:33;13.50;33.70
16271;DHT22;8243;49.048;8.396;2023-10-08T04:38:05;13.50;33.70
16271;DHT22;8243;49.048;8.396;2023-10-08T04:40:35;13.50;33.10
16271;DHT22;8243;49.048;8.396;2023-10-08T04:43:07;13.50;33.10
16271;DHT22;8243;49.048;8.396;2023-10-08T04:45:36;13.60;32.40
16271;DHT22;8243;49.048;8.396;2023-10-08T04:48:04;13.60;32.00
16271;DHT22;8243;49.048;8.396;2023-10-08T04:50:35;13.60;32.10
16271;DHT22;8243;49.048;8.396;2023-10-08T04:53:03;13.50;32.00
16271;DHT22;8243;49.048;8.396;2023-10-08T04:55:34;13.60;30.80
16271;DHT22;8243;49.048;8.396;2023-10-08T04:58:00;13.60;30.60
16271;DHT22;8243;49.048;8.396;2023-10-08T05:00:29;13.60;30.90
16271;DHT22;8243;49.048;8.396;2023-10-08T05:03:16;13.50;30.40
16271;DHT22;8243;49.048;8.396;2023-10-08T05:05:42;13.50;30.40
16271;DHT22;8243;49.048;8.396;2023-10-08T05:08:27;13.50;30.70
16271;DHT22;8243;49.048;8.396;2023-10-08T05:11:13;13.40;31.00
16271;DHT22;8243;49.048;8.396;2023-10-08T05:14:02;13.40;31.10
16271;DHT22;8243;49.048;8.396;2023-10-08T05:16:32;13.30;31.70
16271;DHT22;8243;49.048;8.396;2023-10-08T05:19:10;13.30;32.50
16271;DHT22;8243;49.048;8.396;2023-10-08T05:21:54;13.20;33.30
16271;DHT22;8243;49.048;8.396;2023-10-08T05:24:40;13.20;34.30
16271;DHT22;8243;49.048;8.396;2023-10-08T05:27:16;13.10;35.50
16271;DHT22;8243;49.048;8.396;2023-10-08T05:30:04;13.10;36.50
16271;DHT22;8243;49.048;8.396;2023-10-08T05:32:52;13.10;37.00
16271;DHT22;8243;49.048;8.396;2023-10-08T05:35:36;13.20;38.30
16271;DHT22;8243;49.048;8.396;2023-10-08T05:38:05;13.20;39.20
16271;DHT22;8243;49.048;8.396;2023-10-08T05:40:51;13.20;40.00
16271;DHT22;8243;49.048;8.396;2023-10-08T05:46:11;13.30;41.30
16271;DHT22;8243;49.048;8.396;2023-10-08T05:48:54;13.40;41.70
16271;DHT22;8243;49.048;8.396;2023-10-08T05:51:46;13.40;42.30
16271;DHT22;8243;49.048;8.396;2023-10-08T05:54:32;13.40;43.10
16271;DHT22;8243;49.048;8.396;2023-10-08T05:59:42;13.50;44.10
16271;DHT22;8243;49.048;8.396;2023-10-08T06:04:59;13.50;44.40
16271;DHT22;8243;49.048;8.396;2023-10-08T06:07:41;13.60;44.20
16271;DHT22;8243;49.048;8.396;2023-10-08T06:12:55;13.80;44.00
16271;DHT22;8243;49.048;8.396;2023-10-08T06:15:28;14.00;43.90
16271;DHT22;8243;49.048;8.396;2023-10-08T06:18:10;14.40;42.10
16271;DHT22;8243;49.048;8.396;2023-10-08T06:20:37;14.70;40.60
16271;DHT22;8243;49.048;8.396;2023-10-08T06:23:05;15.00;38.60
16271;DHT22;8243;49.048;8.396;2023-10-08T06:25:33;15.40;35.60
16271;DHT22;8243;49.048;8.396;2023-10-08T06:27:58;15.60;34.80
16271;DHT22;8243;49.048;8.396;2023-10-08T06:30:25;16.00;32.50
16271;DHT22;8243;49.048;8.396;2023-10-08T06:32:55;16.30;30.30
16271;DHT22;8243;49.048;8.396;2023-10-08T06:35:21;16.50;28.70
16271;DHT22;8243;49.048;8.396;2023-10-08T06:37:51;16.40;28.00
16271;DHT22;8243;49.048;8.396;2023-10-08T06:40:20;16.30;28.00
16271;DHT22;8243;49.048;8.396;2023-10-08T06:43:09;16.50;28.00
16271;DHT22;8243;49.048;8.396;2023-10-08T06:45:44;16.80;26.30
16271;DHT22;8243;49.048;8.396;2023-10-08T06:48:12;17.50;24.80
16271;DHT22;8243;49.048;8.396;2023-10-08T06:50:48;17.80;23.00
16271;DHT22;8243;49.048;8.396;2023-10-08T06:53:14;18.20;21.90
16271;DHT22;8243;49.048;8.396;2023-10-08T06:55:41;18.70;21.00
16271;DHT22;8243;49.048;8.396;2023-10-08T06:58:07;19.10;19.40
16271;DHT22;8243;49.048;8.396;2023-10-08T07:00:40;19.10;18.90
16271;DHT22;8243;49.048;8.396;2023-10-08T07:03:13;19.60;18.10
16271;DHT22;8243;49.048;8.396;2023-10-08T07:05:46;20.30;16.20
16271;DHT22;8243;49.048;8.396;2023-10-08T07:08:26;20.60;15.10
16271;DHT22;8243;49.048;8.396;2023-10-08T07:10:53;21.10;14.40
16271;DHT22;8243;49.048;8.396;2023-10-08T07:13:21;21.20;13.60
16271;DHT22;8243;49.048;8.396;2023-10-08T07:15:51;21.20;13.00
16271;DHT22;8243;49.048;8.396;2023-10-08T07:18:18;20.90;12.40
16271;DHT22;8243;49.048;8.396;2023-10-08T07:20:54;19.80;13.70
16271;DHT22;8243;49.048;8.396;2023-10-08T07:23:22;19.00;15.60
16271;DHT22;8243;49.048;8.396;2023-10-08T07:26:03;18.20;17.20
16271;DHT22;8243;49.048;8.396;2023-10-08T07:28:44;17.70;19.00
16271;DHT22;8243;49.048;8.396;2023-10-08T07:31:22;18.20;20.00
16271;DHT22;8243;49.048;8.396;2023-10-08T07:33:54;19.20;17.60
16271;DHT22;8243;49.048;8.396;2023-10-08T07:36:26;19.80;16.70
16271;DHT22;8243;49.048;8.396;2023-10-08T07:38:53;20.40;14.80
16271;DHT22;8243;49.048;8.396;2023-10-08T07:41:19;21.30;13.40
16271;DHT22;8243;49.048;8.396;2023-10-08T07:43:46;21.80;12.30
16271;DHT22;8243;49.048;8.396;2023-10-08T07:46:18;21.80;11.60
16271;DHT22;8243;49.048;8.396;2023-10-08T07:48:44;22.00;10.80
16271;DHT22;8243;49.048;8.396;2023-10-08T07:51:10;22.20;10.10
16271;DHT22;8243;49.048;8.396;2023-10-08T07:53:35;22.50;8.90
16271;DHT22;8243;49.048;8.396;2023-10-08T07:56:06;22.40;8.90
16271;DHT22;8243;49.048;8.396;2023-10-08T07:58:33;22.70;9.00
16271;DHT22;8243;49.048;8.396;2023-10-08T08:01:08;22.70;8.30
16271;DHT22;8243;49.048;8.396;2023-10-08T08:03:35;23.10;7.80
16271;DHT22;8243;49.048;8.396;2023-10-08T08:06:06;22.70;7.70
16271;DHT22;8243;49.048;8.396;2023-10-08T08:08:36;22.80;7.80
16271;DHT22;8243;49.048;8.396;2023-10-08T08:11:05;22.60;8.00
16271;DHT22;8243;49.048;8.396;2023-10-08T08:13:38;22.20;8.50
16271;DHT22;8243;49.048;8.396;2023-10-08T08:16:04;21.60;9.50
16271;DHT22;8243;49.048;8.396;2023-10-08T08:18:56;21.10;10.50
16271;DHT22;8243;49.048;8.396;2023-10-08T08:21:23;21.20;11.10
16271;DHT22;8243;49.048;8.396;2023-10-08T08:23:49;21.60;10.90
16271;DHT22;8243;49.048;8.396;2023-10-08T08:26:20;21.90;10.50
16271;DHT22;8243;49.048;8.396;2023-10-08T08:29:01;21.60;10.30
16271;DHT22;8243;49.048;8.396;2023-10-08T08:31:28;21.40;10.50
16271;DHT22;8243;49.048;8.396;2023-10-08T08:33:57;21.40;10.20
16271;DHT22;8243;49.048;8.396;2023-10-08T08:36:27;21.80;9.60
16271;DHT22;8243;49.048;8.396;2023-10-08T08:38:54;22.00;10.00
16271;DHT22;8243;49.048;8.396;2023-10-08T08:41:20;21.90;9.20
16271;DHT22;8243;49.048;8.396;2023-10-08T08:43:55;22.00;10.30
16271;DHT22;8243;49.048;8.396;2023-10-08T08:46:30;22.20;10.00
16271;DHT22;8243;49.048;8.396;2023-10-08T08:49:02;22.30;9.90
16271;DHT22;8243;49.048;8.396;2023-10-08T08:51:30;22.90;9.60
16271;DHT22;8243;49.048;8.396;2023-10-08T08:53:55;23.00;9.00
16271;DHT22;8243;49.048;8.396;2023-10-08T08:56:21;23.30;8.70
16271;DHT22;8243;49.048;8.396;2023-10-08T08:58:49;23.70;8.40
16271;DHT22;8243;49.048;8.396;2023-10-08T09:01:16;24.50;7.30
16271;DHT22;8243;49.048;8.396;2023-10-08T09:03:43;24.80;6.70
16271;DHT22;8243;49.048;8.396;2023-10-08T09:06:08;25.10;5.80
16271;DHT22;8243;49.048;8.396;2023-10-08T09:08:35;24.50;6.10
16271;DHT22;8243;49.048;8.396;2023-10-08T09:11:02;24.40;5.90
16271;DHT22;8243;49.048;8.396;2023-10-08T09:13:30;24.90;6.10
16271;DHT22;8243;49.048;8.396;2023-10-08T09:16:22;25.30;4.90
16271;DHT22;8243;49.048;8.396;2023-10-08T09:18:48;24.80;5.20
16271;DHT22;8243;49.048;8.396;2023-10-08T09:21:17;24.00;6.10
16271;DHT22;8243;49.048;8.396;2023-10-08T09:23:49;23.30;7.50
16271;DHT22;8243;49.048;8.396;2023-10-08T09:26:25;22.70;8.60
16271;DHT22;8243;49.048;8.396;2023-10-08T09:28:54;22.50;9.50
16271;DHT22;8243;49.048;8.396;2023-10-08T09:31:23;22.60;9.20
16271;DHT22;8243;49.048;8.396;2023-10-08T09:33:56;22.90;9.20
16271;DHT22;8243;49.048;8.396;2023-10-08T09:36:22;23.80;7.80
16271;DHT22;8243;49.048;8.396;2023-10-08T09:38:59;24.00;7.50
16271;DHT22;8243;49.048;8.396;2023-10-08T09:41:28;24.60;6.70
16271;DHT22;8243;49.048;8.396;2023-10-08T09:43:56;24.40;6.50
16271;DHT22;8243;49.048;8.396;2023-10-08T09:46:29;24.10;7.10
16271;DHT22;8243;49.048;8.396;2023-10-08T09:48:59;24.00;7.40
16271;DHT22;8243;49.048;8.396;2023-10-08T09:51:29;24.30;7.00
16271;DHT22;8243;49.048;8.396;2023-10-08T09:54:11;24.30;7.50
16271;DHT22;8243;49.048;8.396;2023-10-08T09:56:39;24.50;7.20
16271;DHT22;8243;49.048;8.396;2023-10-08T09:59:06;24.50;7.60
16271;DHT22;8243;49.048;8.396;2023-10-08T10:01:36;24.90;7.20
16271;DHT22;8243;49.048;8.396;2023-10-08T10:04:08;24.90;7.10
16271;DHT22;8243;49.048;8.396;2023-10-08T10:06:34;25.10;6.50
16271;DHT22;8243;49.048;8.396;2023-10-08T10:09:01;25.10;7.20
16271;DHT22;8243;49.048;8.396;2023-10-08T10:11:32;25.30;7.60
16271;DHT22;8243;49.048;8.396;2023-10-08T10:13:59;25.00;7.80
16271;DHT22;8243;49.048;8.396;2023-10-08T10:16:28;25.00;7.90
16271;DHT22;8243;49.048;8.396;2023-10-08T10:18:59;24.90;8.10
16271;DHT22;8243;49.048;8.396;2023-10-08T10:21:29;25.20;8.10
16271;DHT22;8243;49.048;8.396;2023-10-08T10:23:56;24.90;8.30
16271;DHT22;8243;49.048;8.396;2023-10-08T10:26:35;24.20;9.20
16271;DHT22;8243;49.048;8.396;2023-10-08T10:31:49;24.20;10.10
16271;DHT22;8243;49.048;8.396;2023-10-08T10:34:23;24.40;9.70
16271;DHT22;8243;49.048;8.396;2023-10-08T10:36:52;24.40;9.70
16271;DHT22;8243;49.048;8.396;2023-10-08T10:39:23;24.20;10.30
16271;DHT22;8243;49.048;8.396;2023-10-08T10:42:01;24.10;10.40
16271;DHT22;8243;49.048;8.396;2023-10-08T10:44:28;24.20;10.20
16271;DHT22;8243;49.048;8.396;2023-10-08T10:46:56;24.30;10.40
16271;DHT22;8243;49.048;8.396;2023-10-08T10:49:41;24.20;10.60
16271;DHT22;8243;49.048;8.396;2023-10-08T10:52:35;24.40;10.20
16271;DHT22;8243;49.048;8.396;2023-10-08T10:55:12;24.30;10.20
16271;DHT22;8243;49.048;8.396;2023-10-08T10:57:42;24.60;10.30
16271;DHT22;8243;49.048;8.396;2023-10-08T11:00:09;24.80;9.80
16271;DHT22;8243;49.048;8.396;2023-10-08T11:02:56;25.10;9.50
16271;DHT22;8243;49.048;8.396;2023-10-08T11:05:34;25.00;9.30
16271;DHT22;8243;49.048;8.396;2023-10-08T11:08:08;25.20;8.90
16271;DHT22;8243;49.048;8.396;2023-10-08T11:10:39;25.20;9.10
16271;DHT22;8243;49.048;8.396;2023-10-08T11:13:07;25.20;8.80
16271;DHT22;8243;49.048;8.396;2023-10-08T11:15:43;25.20;8.80
16271;DHT22;8243;49.048;8.396;2023-10-08T11:18:18;25.30;8.40
16271;DHT22;8243;49.048;8.396;2023-10-08T11:20:44;25.40;8.30
16271;DHT22;8243;49.048;8.396;2023-10-08T11:23:11;25.20;9.40
16271;DHT22;8243;49.048;8.396;2023-10-08T11:25:58;25.00;8.70
16271;DHT22;8243;49.048;8.396;2023-10-08T11:28:34;24.80;9.10
16271;DHT22;8243;49.048;8.396;2023-10-08T11:31:01;24.70;9.00
16271;DHT22;8243;49.048;8.396;2023-10-08T11:33:38;24.60;9.60
16271;DHT22;8243;49.048;8.396;2023-10-08T11:36:05;24.80;9.60
16271;DHT22;8243;49.048;8.396;2023-10-08T11:38:56;24.80;9.40
16271;DHT22;8243;49.048;8.396;2023-10-08T11:41:30;24.70;9.40
16271;DHT22;8243;49.048;8.396;2023-10-08T11:43:57;24.70;9.40
16271;DHT22;8243;49.048;8.396;2023-10-08T11:46:30;24.80;9.20
16271;DHT22;8243;49.048;8.396;2023-10-08T11:49:08;24.70;9.80
16271;DHT22;8243;49.048;8.396;2023-10-08T11:51:43;24.70;9.60
16271;DHT22;8243;49.048;8.396;2023-10-08T11:54:09;24.60;9.50
16271;DHT22;8243;49.048;8.396;2023-10-08T11:56:37;24.60;9.80
16271;DHT22;8243;49.048;8.396;2023-10-08T11:59:04;24.70;9.50
16271;DHT22;8243;49.048;8.396;2023-10-08T12:01:37;24.80;9.40
16271;DHT22;8243;49.048;8.396;2023-10-08T12:04:08;25.00;9.20
16271;DHT22;8243;49.048;8.396;2023-10-08T12:06:39;25.10;9.00
16271;DHT22;8243;49.048;8.396;2023-10-08T12:09:10;25.00;8.90
16271;DHT22;8243;49.048;8.396;2023-10-08T12:11:38;25.10;8.80
16271;DHT22;8243;49.048;8.396;2023-10-08T12:14:05;25.20;8.50
16271;DHT22;8243;49.048;8.396;2023-10-08T12:16:31;25.20;8.70
16271;DHT22;8243;49.048;8.396;2023-10-08T12:19:01;25.50;8.30
16271;DHT22;8243;49.048;8.396;2023-10-08T12:21:28;25.50;8.30
16271;DHT22;8243;49.048;8.396;2023-10-08T12:23:58;25.40;8.20
16271;DHT22;8243;49.048;8.396;2023-10-08T12:26:23;25.50;8.30
16271;DHT22;8243;49.048;8.396;2023-10-08T12:28:49;25.50;8.30
16271;DHT22;8243;49.048;8.396;2023-10-08T12:31:16;25.40;8.40
16271;DHT22;8243;49.048;8.396;2023-10-08T12:33:42;25.40;8.50
16271;DHT22;8243;49.048;8.396;2023-10-08T12:36:11;25.30;8.60
16271;DHT22;8243;49.048;8.396;2023-10-08T12:38:38;25.30;8.70
16271;DHT22;8243;49.048;8.396;2023-10-08T12:41:04;25.40;8.40
16271;DHT22;8243;49.048;8.396;2023-10-08T12:43:40;25.40;8.60
16271;DHT22;8243;49.048;8.396;2023-10-08T12:46:09;25.40;8.30
16271;DHT22;8243;49.048;8.396;2023-10-08T12:48:44;25.70;9.00
16271;DHT22;8243;49.048;8.396;2023-10-08T12:51:13;25.80;8.50
16271;DHT22;8243;49.048;8.396;2023-10-08T12:53:39;25.80;8.50
16271;DHT22;8243;49.048;8.396;2023-10-08T12:56:06;25.90;8.50
16271;DHT22;8243;49.048;8.396;2023-10-08T12:58:36;25.80;8.40
16271;DHT22;8243;49.048;8.396;2023-10-08T13:01:17;25.80;8.40
16271;DHT22;8243;49.048;8.396;2023-10-08T13:03:45;25.80;8.40
16271;DHT22;8243;49.048;8.396;2023-10-08T13:06:15;25.80;8.40
16271;DHT22;8243;49.048;8.396;2023-10-08T13:08:48;25.90;8.50
16271;DHT22;8243;49.048;8.396;2023-10-08T13:11:14;26.00;8.30
16271;DHT22;8243;49.048;8.396;2023-10-08T13:13:40;25.80;8.50
16271;DHT22;8243;49.048;8.396;2023-10-08T13:16:07;25.80;8.30
16271;DHT22;8243;49.048;8.396;2023-10-08T13:18:34;26.00;8.50
16271;DHT22;8243;49.048;8.396;2023-10-08T13:21:02;26.00;8.10
16271;DHT22;8243;49.048;8.396;2023-10-08T13:23:29;26.10;7.60
16271;DHT22;8243;49.048;8.396;2023-10-08T13:25:54;26.00;8.00
16271;DHT22;8243;49.048;8.396;2023-10-08T13:28:21;26.10;7.70
16271;DHT22;8243;49.048;8.396;2023-10-08T13:30:48;26.10;7.80
16271;DHT22;8243;49.048;8.396;2023-10-08T13:33:20;26.00;8.10
16271;DHT22;8243;49.048;8.396;2023-10-08T13:35:51;25.90;8.40
16271;DHT22;8243;49.048;8.396;2023-10-08T13:38:17;26.00;8.50
16271;DHT22;8243;49.048;8.396;2023-10-08T13:40:45;26.10;7.90
16271;DHT22;8243;49.048;8.396;2023-10-08T13:43:28;26.10;7.80
16271;DHT22;8243;49.048;8.396;2023-10-08T13:46:00;26.20;8.10
16271;DHT22;8243;49.048;8.396;2023-10-08T13:48:30;26.30;7.70
16271;DHT22;8243;49.048;8.396;2023-10-08T13:51:04;26.30;7.50
16271;DHT22;8243;49.048;8.396;2023-10-08T13:53:34;26.20;7.90
16271;DHT22;8243;49.048;8.396;2023-10-08T13:56:02;26.30;7.90
16271;DHT22;8243;49.048;8.396;2023-10-08T13:58:30;26.30;7.60
16271;DHT22;8243;49.048;8.396;2023-10-08T14:00:59;26.30;7.80
16271;DHT22;8243;49.048;8.396;2023-10-08T14:03:30;26.40;7.50
16271;DHT22;8243;49.048;8.396;2023-10-08T14:05:59;26.50;7.80
16271;DHT22;8243;49.048;8.396;2023-10-08T14:08:31;26.50;7.40
16271;DHT22;8243;49.048;8.396;2023-10-08T14:10:57;26.60;7.90
16271;DHT22;8243;49.048;8.396;2023-10-08T14:13:32;26.40;7.70
16271;DHT22;8243;49.048;8.396;2023-10-08T14:16:01;26.20;8.00
16271;DHT22;8243;49.048;8.396;2023-10-08T14:18:33;26.10;7.90
16271;DHT22;8243;49.048;8.396;2023-10-08T14:21:08;26.40;7.90
16271;DHT22;8243;49.048;8.396;2023-10-08T14:23:36;26.40;7.60
16271;DHT22;8243;49.048;8.396;2023-10-08T14:26:07;26.20;7.90
16271;DHT22;8243;49.048;8.396;2023-10-08T14:28:34;26.30;7.90
16271;DHT22;8243;49.048;8.396;2023-10-08T14:31:09;26.40;7.80
16271;DHT22;8243;49.048;8.396;2023-10-08T14:33:41;26.30;8.40
16271;DHT22;8243;49.048;8.396;2023-10-08T14:36:09;26.20;7.70
16271;DHT22;8243;49.048;8.396;2023-10-08T14:38:54;26.20;7.70
16271;DHT22;8243;49.048;8.396;2023-10-08T14:41:38;26.30;7.70
16271;DHT22;8243;49.048;8.396;2023-10-08T14:44:22;26.50;7.60
16271;DHT22;8243;49.048;8.396;2023-10-08T14:46:50;26.50;7.40
16271;DHT22;8243;49.048;8.396;2023-10-08T14:49:16;26.60;7.40
16271;DHT22;8243;49.048;8.396;2023-10-08T14:51:42;26.70;7.30
16271;DHT22;8243;49.048;8.396;2023-10-08T14:54:08;26.60;7.30
16271;DHT22;8243;49.048;8.396;2023-10-08T14:56:35;26.80;7.10
16271;DHT22;8243;49.048;8.396;2023-10-08T14:59:02;26.90;7.10
16271;DHT22;8243;49.048;8.396;2023-10-08T15:01:27;26.70;7.20
16271;DHT22;8243;49.048;8.396;2023-10-08T15:03:53;26.60;7.10
16271;DHT22;8243;49.048;8.396;2023-10-08T15:06:19;26.60;7.20
16271;DHT22;8243;49.048;8.396;2023-10-08T15:08:46;26.50;7.10
16271;DHT22;8243;49.048;8.396;2023-10-08T15:11:11;26.40;7.20
16271;DHT22;8243;49.048;8.396;2023-10-08T15:13:37;26.30;7.30
16271;DHT22;8243;49.048;8.396;2023-10-08T15:16:04;26.20;7.50
16271;DHT22;8243;49.048;8.396;2023-10-08T15:18:30;26.00;7.90
16271;DHT22;8243;49.048;8.396;2023-10-08T15:20:58;25.80;7.70
16271;DHT22;8243;49.048;8.396;2023-10-08T15:23:24;25.90;7.60
16271;DHT22;8243;49.048;8.396;2023-10-08T15:25:53;25.80;8.00
16271;DHT22;8243;49.048;8.396;2023-10-08T15:28:19;25.70;8.20
16271;DHT22;8243;49.048;8.396;2023-10-08T15:30:45;25.70;8.40
16271;DHT22;8243;49.048;8.396;2023-10-08T15:33:11;25.60;8.30
16271;DHT22;8243;49.048;8.396;2023-10-08T15:35:37;25.40;8.40
16271;DHT22;8243;49.048;8.396;2023-10-08T15:38:05;25.20;9.00
16271;DHT22;8243;49.048;8.396;2023-10-08T15:40:30;25.10;8.80
16271;DHT22;8243;49.048;8.396;2023-10-08T15:42:58;25.00;8.90
16271;DHT22;8243;49.048;8.396;2023-10-08T15:45:24;25.00;9.20
16271;DHT22;8243;49.048;8.396;2023-10-08T15:47:51;24.90;9.50
16271;DHT22;8243;49.048;8.396;2023-10-08T15:50:17;24.80;9.50
16271;DHT22;8243;49.048;8.396;2023-10-08T15:52:46;24.80;9.50
16271;DHT22;8243;49.048;8.396;2023-10-08T15:55:13;24.70;9.80
16271;DHT22;8243;49.048;8.396;2023-10-08T15:57:38;24.60;10.10
16271;DHT22;8243;49.048;8.396;2023-10-08T16:00:06;24.60;10.30
16271;DHT22;8243;49.048;8.396;2023-10-08T16:02:33;24.50;10.20
16271;DHT22;8243;49.048;8.396;2023-10-08T16:04:58;24.40;10.50
16271;DHT22;8243;49.048;8.396;2023-10-08T16:07:24;24.30;10.40
16271;DHT22;8243;49.048;8.396;2023-10-08T16:09:49;24.20;10.60
16271;DHT22;8243;49.048;8.396;2023-10-08T16:12:15;24.00;11.00
16271;DHT22;8243;49.048;8.396;2023-10-08T16:14:40;23.90;10.90
16271;DHT22;8243;49.048;8.396;2023-10-08T16:17:07;23.80;11.40
16271;DHT22;8243;49.048;8.396;2023-10-08T16:19:34;23.60;11.30
16271;DHT22;8243;49.048;8.396;2023-10-08T16:22:02;23.50;11.70
16271;DHT22;8243;49.048;8.396;2023-10-08T16:24:28;23.30;11.90
16271;DHT22;8243;49.048;8.396;2023-10-08T16:26:55;23.20;12.30
16271;DHT22;8243;49.048;8.396;2023-10-08T16:29:21;23.10;12.50